SAS905 ENGM-BGGH
Flight info
| Callsign | SAS905 |
|---|---|
| Flight time | 4h 29m |
| Altitude | 34000 |
| Route | EVTOG DCT ISVIG/M079F340 DCT 65N010W 66N020W/M079F360 66N030W DCT ASTAN DCT BAMAM |
| Aircraft | A320/M-SDE3FGHIRWY/LB1 |
Departure
| Time | 2026-05-04 09:01 |
|---|---|
| Airport | Oslo-Gardermoen International Airport (ENGM) |
Arrival
| Time | 2026-05-04 13:30 |
|---|---|
| Airport | Nuuk International Airport (BGGH) |
| Time | Latitude | Longitude | Altitude | Speed | Heading |
|---|---|---|---|---|---|
| 2026-05-04 08:16 | 60.19641 | 11.10205 | 684 ft | 0 kts | 286° |
| 2026-05-04 08:46 | 60.19635 | 11.10245 | 684 ft | 4 kts | 286° |
| 2026-05-04 08:46 | 60.19628 | 11.10294 | 687 ft | 2 kts | 286° |
| 2026-05-04 08:46 | 60.19628 | 11.10297 | 687 ft | 0 kts | 286° |
| 2026-05-04 08:50 | 60.19632 | 11.10294 | 686 ft | 1 kts | 330° |
| 2026-05-04 08:50 | 60.19640 | 11.10306 | 684 ft | 3 kts | 43° |
| 2026-05-04 08:51 | 60.19660 | 11.10364 | 688 ft | 6 kts | 54° |
| 2026-05-04 08:51 | 60.19686 | 11.10438 | 689 ft | 7 kts | 54° |
| 2026-05-04 08:51 | 60.19733 | 11.10486 | 691 ft | 8 kts | 15° |
| 2026-05-04 08:51 | 60.19795 | 11.10519 | 689 ft | 10 kts | 15° |
| 2026-05-04 08:52 | 60.19851 | 11.10553 | 688 ft | 0 kts | 18° |
| 2026-05-04 08:52 | 60.19855 | 11.10555 | 691 ft | 0 kts | 18° |
| 2026-05-04 08:52 | 60.19856 | 11.10556 | 691 ft | 0 kts | 18° |
| 2026-05-04 08:52 | 60.19863 | 11.10560 | 691 ft | 2 kts | 17° |
| 2026-05-04 08:53 | 60.19881 | 11.10553 | 690 ft | 3 kts | 336° |
| 2026-05-04 08:54 | 60.20013 | 11.09722 | 687 ft | 14 kts | 285° |
| 2026-05-04 08:55 | 60.20041 | 11.09515 | 681 ft | 17 kts | 285° |
| 2026-05-04 08:55 | 60.20079 | 11.09254 | 682 ft | 22 kts | 285° |
| 2026-05-04 08:55 | 60.20120 | 11.08965 | 682 ft | 19 kts | 286° |
| 2026-05-04 08:55 | 60.20047 | 11.08826 | 680 ft | 18 kts | 195° |
| 2026-05-04 08:57 | 60.19028 | 11.08236 | 678 ft | 27 kts | 196° |
| 2026-05-04 09:01 | 60.22575 | 11.09771 | 1591 ft | 169 kts | 7° |
| 2026-05-04 09:01 | 60.23706 | 11.10410 | 2160 ft | 169 kts | 9° |
| 2026-05-04 09:01 | 60.24864 | 11.11058 | 2560 ft | 180 kts | 9° |
| 2026-05-04 09:01 | 60.26158 | 11.11384 | 2717 ft | 196 kts | 348° |
| 2026-05-04 09:02 | 60.27572 | 11.10940 | 2960 ft | 215 kts | 346° |
| 2026-05-04 09:02 | 60.29127 | 11.10447 | 3231 ft | 238 kts | 347° |
| 2026-05-04 09:02 | 60.30830 | 11.09911 | 3699 ft | 253 kts | 347° |
| 2026-05-04 09:02 | 60.32582 | 11.09368 | 4465 ft | 257 kts | 347° |
| 2026-05-04 09:03 | 60.34314 | 11.08520 | 5216 ft | 256 kts | 332° |
| 2026-05-04 09:03 | 60.35725 | 11.06409 | 6022 ft | 253 kts | 310° |
| 2026-05-04 09:03 | 60.36901 | 11.03745 | 6790 ft | 255 kts | 308° |
| 2026-05-04 09:03 | 60.37915 | 11.00801 | 7523 ft | 256 kts | 300° |
| 2026-05-04 09:04 | 60.38853 | 10.97730 | 8273 ft | 258 kts | 299° |
| 2026-05-04 09:04 | 60.39791 | 10.94614 | 9001 ft | 261 kts | 298° |
| 2026-05-04 09:04 | 60.40723 | 10.91500 | 9724 ft | 263 kts | 298° |
| 2026-05-04 09:04 | 60.41695 | 10.88252 | 10047 ft | 280 kts | 298° |
| 2026-05-04 09:05 | 60.42741 | 10.84746 | 10182 ft | 301 kts | 298° |
| 2026-05-04 09:05 | 60.43856 | 10.81014 | 10464 ft | 315 kts | 298° |
| 2026-05-04 09:05 | 60.45001 | 10.77204 | 11036 ft | 318 kts | 298° |
| 2026-05-04 09:05 | 60.46159 | 10.73347 | 11651 ft | 321 kts | 298° |
| 2026-05-04 09:06 | 60.47325 | 10.69453 | 12273 ft | 324 kts | 297° |
| 2026-05-04 09:07 | 60.55673 | 10.41259 | 16191 ft | 340 kts | 295° |
| 2026-05-04 09:08 | 60.56891 | 10.37116 | 16728 ft | 342 kts | 295° |
| 2026-05-04 09:08 | 60.58115 | 10.32953 | 17303 ft | 344 kts | 295° |
| 2026-05-04 09:08 | 60.59347 | 10.28763 | 17866 ft | 346 kts | 295° |
| 2026-05-04 09:08 | 60.60584 | 10.24543 | 18367 ft | 348 kts | 295° |
| 2026-05-04 09:09 | 60.61826 | 10.20293 | 18889 ft | 350 kts | 294° |
| 2026-05-04 09:09 | 60.63072 | 10.16021 | 19390 ft | 353 kts | 294° |
| 2026-05-04 09:09 | 60.64326 | 10.11712 | 19945 ft | 354 kts | 293° |
| 2026-05-04 09:09 | 60.65584 | 10.07376 | 20433 ft | 356 kts | 294° |
| 2026-05-04 09:10 | 60.66844 | 10.03019 | 20983 ft | 358 kts | 293° |
| 2026-05-04 09:10 | 60.68107 | 9.98641 | 21488 ft | 359 kts | 293° |
| 2026-05-04 09:10 | 60.69360 | 9.94294 | 21940 ft | 360 kts | 292° |
| 2026-05-04 09:10 | 60.70634 | 9.89874 | 22356 ft | 362 kts | 292° |
| 2026-05-04 09:11 | 60.71916 | 9.85429 | 22777 ft | 365 kts | 292° |
| 2026-05-04 09:11 | 60.73202 | 9.80951 | 23205 ft | 367 kts | 292° |
| 2026-05-04 09:11 | 60.74496 | 9.76436 | 23562 ft | 369 kts | 292° |
| 2026-05-04 09:11 | 60.75792 | 9.71900 | 23903 ft | 371 kts | 292° |
| 2026-05-04 09:12 | 60.77095 | 9.67332 | 24252 ft | 372 kts | 292° |
| 2026-05-04 09:12 | 60.78404 | 9.62735 | 24595 ft | 374 kts | 292° |
| 2026-05-04 09:14 | 60.87733 | 9.29704 | 26512 ft | 390 kts | 292° |
| 2026-05-04 09:14 | 60.89087 | 9.24870 | 26801 ft | 392 kts | 292° |
| 2026-05-04 09:14 | 60.90442 | 9.20016 | 27170 ft | 391 kts | 292° |
| 2026-05-04 09:14 | 60.91791 | 9.15172 | 27578 ft | 390 kts | 292° |
| 2026-05-04 09:15 | 60.93141 | 9.10326 | 27999 ft | 390 kts | 292° |
| 2026-05-04 09:15 | 60.94485 | 9.05493 | 28385 ft | 389 kts | 292° |
| 2026-05-04 09:15 | 60.95824 | 9.00663 | 28789 ft | 388 kts | 292° |
| 2026-05-04 09:15 | 60.97160 | 8.95836 | 29187 ft | 388 kts | 293° |
| 2026-05-04 09:17 | 61.07767 | 8.57088 | 31916 ft | 391 kts | 293° |
| 2026-05-04 09:18 | 61.09101 | 8.52180 | 32175 ft | 392 kts | 293° |
| 2026-05-04 09:18 | 61.10430 | 8.47271 | 32512 ft | 392 kts | 293° |
| 2026-05-04 09:18 | 61.11756 | 8.42354 | 32848 ft | 391 kts | 293° |
| 2026-05-04 09:18 | 61.13077 | 8.37451 | 33207 ft | 390 kts | 293° |
| 2026-05-04 09:19 | 61.14397 | 8.32548 | 33527 ft | 390 kts | 294° |
| 2026-05-04 09:19 | 61.15720 | 8.27619 | 33706 ft | 392 kts | 294° |
| 2026-05-04 09:19 | 61.18395 | 8.17598 | 33759 ft | 404 kts | 294° |
| 2026-05-04 09:20 | 61.21143 | 8.07260 | 33757 ft | 413 kts | 294° |
| 2026-05-04 09:20 | 61.23915 | 7.96794 | 33757 ft | 414 kts | 294° |
| 2026-05-04 09:21 | 61.26686 | 7.86291 | 33756 ft | 414 kts | 294° |
| 2026-05-04 09:21 | 61.29452 | 7.75781 | 33759 ft | 414 kts | 294° |
| 2026-05-04 09:22 | 61.32206 | 7.65254 | 33785 ft | 414 kts | 295° |
| 2026-05-04 09:22 | 61.34925 | 7.54784 | 33789 ft | 413 kts | 294° |
| 2026-05-04 09:23 | 61.37650 | 7.44236 | 33787 ft | 413 kts | 294° |
| 2026-05-04 09:23 | 61.40369 | 7.33678 | 33786 ft | 413 kts | 294° |
| 2026-05-04 09:25 | 61.51153 | 6.91331 | 33832 ft | 411 kts | 294° |
| 2026-05-04 09:26 | 61.53813 | 6.80731 | 33824 ft | 411 kts | 294° |
| 2026-05-04 09:26 | 61.56466 | 6.70122 | 33833 ft | 410 kts | 294° |
| 2026-05-04 09:27 | 61.59109 | 6.59508 | 33825 ft | 410 kts | 294° |
| 2026-05-04 09:27 | 61.61744 | 6.48888 | 33845 ft | 410 kts | 294° |
| 2026-05-04 09:28 | 61.64351 | 6.38326 | 33841 ft | 409 kts | 294° |
| 2026-05-04 09:28 | 61.66965 | 6.27684 | 33843 ft | 410 kts | 294° |
| 2026-05-04 09:29 | 61.69572 | 6.17015 | 33853 ft | 410 kts | 294° |
| 2026-05-04 09:29 | 61.72170 | 6.06320 | 33851 ft | 410 kts | 294° |
| 2026-05-04 09:30 | 61.74758 | 5.95617 | 33852 ft | 410 kts | 293° |
| 2026-05-04 09:30 | 61.76903 | 5.86715 | 33851 ft | 409 kts | 293° |
| 2026-05-04 09:31 | 61.79476 | 5.75979 | 33854 ft | 409 kts | 293° |
| 2026-05-04 09:31 | 61.82043 | 5.65225 | 33872 ft | 410 kts | 294° |
| 2026-05-04 09:32 | 61.84603 | 5.54458 | 33868 ft | 410 kts | 294° |
| 2026-05-04 09:34 | 61.94768 | 5.11064 | 33895 ft | 411 kts | 293° |
| 2026-05-04 09:34 | 61.97295 | 5.00148 | 33900 ft | 411 kts | 293° |
| 2026-05-04 09:35 | 61.99813 | 4.89237 | 33901 ft | 410 kts | 293° |
| 2026-05-04 09:35 | 62.02303 | 4.78408 | 33898 ft | 410 kts | 293° |
| 2026-05-04 09:37 | 62.12183 | 4.34706 | 33891 ft | 409 kts | 292° |
| 2026-05-04 09:38 | 62.14634 | 4.23753 | 33895 ft | 408 kts | 293° |
| 2026-05-04 09:38 | 62.17068 | 4.12770 | 33906 ft | 410 kts | 293° |
| 2026-05-04 09:39 | 62.19504 | 4.01745 | 33872 ft | 410 kts | 293° |
| 2026-05-04 09:39 | 62.21925 | 3.90756 | 33869 ft | 411 kts | 293° |
| 2026-05-04 09:40 | 62.24357 | 3.79643 | 33866 ft | 412 kts | 293° |
| 2026-05-04 09:40 | 62.26779 | 3.68508 | 33869 ft | 412 kts | 292° |
| 2026-05-04 09:42 | 62.36369 | 3.23868 | 33889 ft | 410 kts | 292° |
| 2026-05-04 09:43 | 62.38739 | 3.12693 | 33889 ft | 410 kts | 292° |
| 2026-05-04 09:43 | 62.41102 | 3.01506 | 33888 ft | 410 kts | 292° |
| 2026-05-04 09:44 | 62.43452 | 2.90311 | 33885 ft | 409 kts | 292° |
| 2026-05-04 09:46 | 62.52697 | 2.45516 | 33882 ft | 409 kts | 292° |
| 2026-05-04 09:46 | 62.55005 | 2.34241 | 33881 ft | 410 kts | 292° |
| 2026-05-04 09:47 | 62.57307 | 2.22927 | 33880 ft | 410 kts | 292° |
| 2026-05-04 09:49 | 62.66418 | 1.77381 | 33897 ft | 411 kts | 292° |
| 2026-05-04 09:51 | 62.74259 | 1.37396 | 33907 ft | 410 kts | 292° |
| 2026-05-04 09:51 | 62.76478 | 1.25920 | 33909 ft | 409 kts | 291° |
| 2026-05-04 09:52 | 62.78678 | 1.14451 | 33919 ft | 409 kts | 291° |
| 2026-05-04 09:52 | 62.80869 | 1.02980 | 33918 ft | 409 kts | 291° |
| 2026-05-04 09:53 | 62.83059 | 0.91485 | 33925 ft | 410 kts | 291° |
| 2026-05-04 09:53 | 62.85233 | 0.79973 | 33907 ft | 409 kts | 291° |
| 2026-05-04 09:54 | 62.87400 | 0.68437 | 33896 ft | 410 kts | 291° |
| 2026-05-04 09:54 | 62.89561 | 0.56871 | 33901 ft | 410 kts | 291° |
| 2026-05-04 09:55 | 62.91717 | 0.45276 | 33909 ft | 410 kts | 291° |
| 2026-05-04 09:55 | 62.93860 | 0.33675 | 33909 ft | 410 kts | 291° |
| 2026-05-04 09:56 | 62.95994 | 0.22043 | 33920 ft | 410 kts | 291° |
| 2026-05-04 09:56 | 62.98098 | 0.10467 | 33921 ft | 410 kts | 291° |
| 2026-05-04 09:57 | 63.00287 | -0.01125 | 33928 ft | 411 kts | 296° |
| 2026-05-04 09:57 | 63.03039 | -0.12153 | 33931 ft | 411 kts | 297° |
| 2026-05-04 09:58 | 63.05798 | -0.23177 | 33933 ft | 410 kts | 297° |
| 2026-05-04 09:58 | 63.08546 | -0.34216 | 33934 ft | 410 kts | 297° |
| 2026-05-04 10:00 | 63.19416 | -0.78664 | 33918 ft | 412 kts | 297° |
| 2026-05-04 10:04 | 63.38231 | -1.57611 | 33931 ft | 412 kts | 296° |
| 2026-05-04 10:04 | 63.40875 | -1.68945 | 33935 ft | 411 kts | 296° |
| 2026-05-04 10:05 | 63.43486 | -1.80217 | 33957 ft | 412 kts | 296° |
| 2026-05-04 10:05 | 63.46117 | -1.91606 | 33943 ft | 413 kts | 296° |
| 2026-05-04 10:06 | 63.48738 | -2.03036 | 33927 ft | 413 kts | 296° |
| 2026-05-04 10:06 | 63.51351 | -2.14508 | 33925 ft | 414 kts | 296° |
| 2026-05-04 10:08 | 63.60437 | -2.54799 | 33942 ft | 413 kts | 296° |
| 2026-05-04 10:08 | 63.63006 | -2.66335 | 33943 ft | 412 kts | 296° |
| 2026-05-04 10:09 | 63.65561 | -2.77871 | 33946 ft | 412 kts | 296° |
| 2026-05-04 10:09 | 63.68111 | -2.89411 | 33946 ft | 411 kts | 296° |
| 2026-05-04 10:10 | 63.70651 | -3.00967 | 33940 ft | 411 kts | 295° |
| 2026-05-04 10:10 | 63.73193 | -3.12599 | 33945 ft | 414 kts | 295° |
| 2026-05-04 10:11 | 63.75722 | -3.24288 | 33950 ft | 414 kts | 295° |
| 2026-05-04 10:11 | 63.78246 | -3.35996 | 33951 ft | 414 kts | 295° |
| 2026-05-04 10:12 | 63.80760 | -3.47712 | 33955 ft | 414 kts | 295° |
| 2026-05-04 10:12 | 63.83264 | -3.59457 | 33951 ft | 414 kts | 295° |
| 2026-05-04 10:13 | 63.85755 | -3.71210 | 33950 ft | 414 kts | 295° |
| 2026-05-04 10:13 | 63.88238 | -3.82978 | 33953 ft | 414 kts | 295° |
| 2026-05-04 10:14 | 63.90710 | -3.94776 | 33941 ft | 413 kts | 295° |
| 2026-05-04 10:16 | 64.00455 | -4.41861 | 33957 ft | 413 kts | 295° |
| 2026-05-04 10:16 | 64.02880 | -4.53755 | 33947 ft | 414 kts | 295° |
| 2026-05-04 10:17 | 64.05302 | -4.65709 | 33935 ft | 415 kts | 294° |
| 2026-05-04 10:19 | 64.14899 | -5.13761 | 33963 ft | 414 kts | 294° |
| 2026-05-04 10:19 | 64.17268 | -5.25803 | 33962 ft | 414 kts | 294° |
| 2026-05-04 10:20 | 64.19233 | -5.35814 | 33962 ft | 414 kts | 294° |
| 2026-05-04 10:20 | 64.21588 | -5.47886 | 33967 ft | 414 kts | 294° |
| 2026-05-04 10:21 | 64.23925 | -5.59961 | 33947 ft | 413 kts | 294° |
| 2026-05-04 10:21 | 64.26252 | -5.72037 | 33967 ft | 413 kts | 294° |
| 2026-05-04 10:22 | 64.29713 | -5.90206 | 33955 ft | 414 kts | 294° |
| 2026-05-04 10:23 | 64.32016 | -6.02386 | 33954 ft | 414 kts | 294° |
| 2026-05-04 10:25 | 64.41150 | -6.51305 | 33954 ft | 414 kts | 293° |
| 2026-05-04 10:25 | 64.43404 | -6.63530 | 33962 ft | 413 kts | 293° |
| 2026-05-04 10:26 | 64.45628 | -6.75679 | 33965 ft | 412 kts | 293° |
| 2026-05-04 10:26 | 64.47848 | -6.87927 | 33966 ft | 412 kts | 293° |
| 2026-05-04 10:27 | 64.50064 | -7.00191 | 33966 ft | 412 kts | 293° |
| 2026-05-04 10:27 | 64.52263 | -7.12479 | 33970 ft | 412 kts | 293° |
| 2026-05-04 10:28 | 64.54457 | -7.24761 | 33931 ft | 411 kts | 293° |
| 2026-05-04 10:28 | 64.56637 | -7.37052 | 33968 ft | 410 kts | 293° |
| 2026-05-04 10:29 | 64.58794 | -7.49326 | 33976 ft | 409 kts | 293° |
| 2026-05-04 10:29 | 64.60938 | -7.61584 | 33977 ft | 408 kts | 292° |
| 2026-05-04 10:30 | 64.63064 | -7.73842 | 33975 ft | 408 kts | 292° |
| 2026-05-04 10:30 | 64.65183 | -7.86114 | 33982 ft | 408 kts | 292° |
| 2026-05-04 10:31 | 64.67291 | -7.98403 | 33983 ft | 408 kts | 292° |
| 2026-05-04 10:32 | 64.74559 | -8.41330 | 34028 ft | 405 kts | 292° |
| 2026-05-04 10:33 | 64.76606 | -8.53616 | 33965 ft | 405 kts | 292° |
| 2026-05-04 10:33 | 64.78648 | -8.65928 | 33959 ft | 405 kts | 292° |
| 2026-05-04 10:34 | 64.80683 | -8.78280 | 33964 ft | 406 kts | 292° |
| 2026-05-04 10:34 | 64.82708 | -8.90664 | 33970 ft | 406 kts | 292° |
| 2026-05-04 10:35 | 64.84722 | -9.03089 | 33964 ft | 407 kts | 291° |
| 2026-05-04 10:35 | 64.86724 | -9.15536 | 33969 ft | 407 kts | 291° |
| 2026-05-04 10:36 | 64.88721 | -9.27996 | 33981 ft | 407 kts | 291° |
| 2026-05-04 10:36 | 64.90712 | -9.40479 | 33981 ft | 407 kts | 291° |
| 2026-05-04 10:37 | 64.92688 | -9.52970 | 33991 ft | 407 kts | 291° |
| 2026-05-04 10:37 | 64.94651 | -9.65478 | 33986 ft | 407 kts | 291° |
| 2026-05-04 10:39 | 65.01381 | -10.09633 | 33983 ft | 409 kts | 289° |
| 2026-05-04 10:40 | 65.03115 | -10.22368 | 33978 ft | 410 kts | 289° |
| 2026-05-04 10:40 | 65.04829 | -10.35231 | 33991 ft | 410 kts | 289° |
| 2026-05-04 10:41 | 65.06545 | -10.48104 | 33992 ft | 409 kts | 289° |
| 2026-05-04 10:41 | 65.08261 | -10.60973 | 34001 ft | 409 kts | 289° |
| 2026-05-04 10:42 | 65.09974 | -10.73855 | 34002 ft | 410 kts | 289° |
| 2026-05-04 10:42 | 65.11664 | -10.86752 | 33981 ft | 408 kts | 288° |
| 2026-05-04 10:43 | 65.13346 | -10.99632 | 34013 ft | 408 kts | 288° |
| 2026-05-04 10:45 | 65.19940 | -11.51133 | 34006 ft | 408 kts | 288° |
| 2026-05-04 10:45 | 65.21555 | -11.64031 | 33996 ft | 409 kts | 288° |
| 2026-05-04 10:46 | 65.23173 | -11.77050 | 33999 ft | 409 kts | 288° |
| 2026-05-04 10:46 | 65.24774 | -11.90058 | 34023 ft | 408 kts | 288° |
| 2026-05-04 10:47 | 65.26363 | -12.03066 | 34031 ft | 408 kts | 288° |
| 2026-05-04 10:47 | 65.27945 | -12.16066 | 34032 ft | 408 kts | 288° |
| 2026-05-04 10:49 | 65.34140 | -12.68171 | 34029 ft | 406 kts | 287° |
| 2026-05-04 10:50 | 65.35651 | -12.81172 | 34052 ft | 404 kts | 287° |
| 2026-05-04 10:52 | 65.41585 | -13.33293 | 34031 ft | 407 kts | 287° |
| 2026-05-04 10:52 | 65.43048 | -13.46429 | 34027 ft | 407 kts | 287° |
| 2026-05-04 10:54 | 65.48747 | -13.98726 | 34078 ft | 403 kts | 286° |
| 2026-05-04 10:56 | 65.54230 | -14.50973 | 34079 ft | 401 kts | 285° |
| 2026-05-04 10:57 | 65.55575 | -14.64038 | 34127 ft | 401 kts | 285° |
| 2026-05-04 10:57 | 65.56907 | -14.77160 | 34108 ft | 403 kts | 285° |
| 2026-05-04 10:58 | 65.58228 | -14.90337 | 34102 ft | 404 kts | 285° |
| 2026-05-04 10:58 | 65.59550 | -15.03562 | 34103 ft | 405 kts | 285° |
| 2026-05-04 10:59 | 65.60861 | -15.16813 | 34111 ft | 405 kts | 285° |
| 2026-05-04 10:59 | 65.62158 | -15.30094 | 34114 ft | 405 kts | 285° |
| 2026-05-04 11:00 | 65.63440 | -15.43373 | 34117 ft | 404 kts | 285° |
| 2026-05-04 11:02 | 65.68431 | -15.96182 | 34158 ft | 401 kts | 284° |
| 2026-05-04 11:05 | 65.77286 | -16.95808 | 34191 ft | 403 kts | 284° |
| 2026-05-04 11:06 | 65.78416 | -17.09158 | 34194 ft | 402 kts | 284° |
| 2026-05-04 11:06 | 65.79541 | -17.22528 | 34194 ft | 403 kts | 283° |
| 2026-05-04 11:10 | 65.86852 | -18.13668 | 34200 ft | 403 kts | 283° |
| 2026-05-04 11:12 | 65.90924 | -18.67805 | 34224 ft | 405 kts | 282° |
| 2026-05-04 11:12 | 65.91912 | -18.81385 | 34244 ft | 406 kts | 282° |
| 2026-05-04 11:13 | 65.92885 | -18.94910 | 34245 ft | 406 kts | 282° |
| 2026-05-04 11:13 | 65.93852 | -19.08541 | 34244 ft | 406 kts | 282° |
| 2026-05-04 11:14 | 65.94804 | -19.22164 | 34212 ft | 405 kts | 282° |
| 2026-05-04 11:16 | 65.98483 | -19.76421 | 34262 ft | 403 kts | 282° |
| 2026-05-04 11:16 | 65.99370 | -19.90030 | 34258 ft | 404 kts | 281° |
| 2026-05-04 11:17 | 66.00158 | -20.03598 | 34265 ft | 405 kts | 279° |
| 2026-05-04 11:19 | 66.01799 | -20.58795 | 34279 ft | 403 kts | 277° |
| 2026-05-04 11:19 | 66.02194 | -20.72537 | 34274 ft | 403 kts | 277° |
| 2026-05-04 11:20 | 66.02574 | -20.86290 | 34272 ft | 403 kts | 277° |
| 2026-05-04 11:20 | 66.02935 | -20.99956 | 34274 ft | 403 kts | 276° |
| 2026-05-04 11:22 | 66.04253 | -21.54743 | 34301 ft | 400 kts | 276° |
| 2026-05-04 11:23 | 66.04552 | -21.68433 | 34300 ft | 401 kts | 276° |
| 2026-05-04 11:25 | 66.05510 | -22.16509 | 34291 ft | 401 kts | 276° |
| 2026-05-04 11:25 | 66.05749 | -22.30220 | 34307 ft | 400 kts | 276° |
| 2026-05-04 11:27 | 66.06704 | -22.91627 | 34267 ft | 399 kts | 275° |
| 2026-05-04 11:28 | 66.06877 | -23.05266 | 34234 ft | 398 kts | 275° |
| 2026-05-04 11:28 | 66.07041 | -23.18844 | 34268 ft | 395 kts | 275° |
| 2026-05-04 11:29 | 66.07198 | -23.32371 | 34275 ft | 394 kts | 275° |
| 2026-05-04 11:29 | 66.07344 | -23.45849 | 34323 ft | 393 kts | 275° |
| 2026-05-04 11:33 | 66.08000 | -24.39556 | 34324 ft | 388 kts | 275° |
| 2026-05-04 11:33 | 66.08044 | -24.52843 | 34321 ft | 387 kts | 274° |
| 2026-05-04 11:34 | 66.08074 | -24.66108 | 34319 ft | 387 kts | 274° |
| 2026-05-04 11:34 | 66.08091 | -24.79372 | 34317 ft | 387 kts | 274° |
| 2026-05-04 11:35 | 66.08099 | -24.92626 | 34267 ft | 386 kts | 274° |
| 2026-05-04 11:35 | 66.08102 | -25.05850 | 34298 ft | 385 kts | 274° |
| 2026-05-04 11:36 | 66.08094 | -25.19046 | 34314 ft | 385 kts | 274° |
| 2026-05-04 11:36 | 66.08074 | -25.32231 | 34311 ft | 384 kts | 274° |
| 2026-05-04 11:37 | 66.08043 | -25.45403 | 34306 ft | 384 kts | 274° |
| 2026-05-04 11:37 | 66.08000 | -25.58468 | 34332 ft | 384 kts | 274° |
| 2026-05-04 11:38 | 66.07935 | -25.71649 | 34311 ft | 385 kts | 273° |
| 2026-05-04 11:38 | 66.07867 | -25.84830 | 34261 ft | 385 kts | 273° |
| 2026-05-04 11:39 | 66.07794 | -25.97995 | 34294 ft | 384 kts | 273° |
| 2026-05-04 11:41 | 66.07437 | -26.43908 | 34291 ft | 382 kts | 273° |
| 2026-05-04 11:41 | 66.07311 | -26.57001 | 34292 ft | 382 kts | 273° |
| 2026-05-04 11:42 | 66.07168 | -26.70092 | 34295 ft | 382 kts | 273° |
| 2026-05-04 11:42 | 66.07019 | -26.83174 | 34227 ft | 382 kts | 272° |
| 2026-05-04 11:43 | 66.06865 | -26.96264 | 34252 ft | 382 kts | 272° |
| 2026-05-04 11:43 | 66.06684 | -27.09334 | 34265 ft | 382 kts | 272° |
| 2026-05-04 11:44 | 66.06497 | -27.22395 | 34273 ft | 382 kts | 272° |
| 2026-05-04 11:44 | 66.06313 | -27.35457 | 34280 ft | 382 kts | 272° |
| 2026-05-04 11:45 | 66.06111 | -27.48522 | 34380 ft | 383 kts | 272° |
| 2026-05-04 11:45 | 66.06003 | -27.54989 | 34660 ft | 383 kts | 272° |
| 2026-05-04 11:45 | 66.05890 | -27.61638 | 34908 ft | 384 kts | 271° |
| 2026-05-04 11:45 | 66.05777 | -27.68132 | 35165 ft | 386 kts | 271° |
| 2026-05-04 11:46 | 66.05659 | -27.74735 | 35391 ft | 387 kts | 271° |
| 2026-05-04 11:46 | 66.05538 | -27.81370 | 35600 ft | 388 kts | 271° |
| 2026-05-04 11:46 | 66.05416 | -27.88015 | 35801 ft | 390 kts | 271° |
| 2026-05-04 11:46 | 66.05292 | -27.94694 | 35992 ft | 391 kts | 271° |
| 2026-05-04 11:47 | 66.05164 | -28.01392 | 36184 ft | 393 kts | 270° |
| 2026-05-04 11:47 | 66.04896 | -28.14883 | 36250 ft | 395 kts | 270° |
| 2026-05-04 11:48 | 66.04613 | -28.28378 | 36252 ft | 395 kts | 270° |
| 2026-05-04 11:48 | 66.04313 | -28.41886 | 36250 ft | 395 kts | 270° |
| 2026-05-04 11:49 | 66.04012 | -28.55397 | 36249 ft | 395 kts | 270° |
| 2026-05-04 11:49 | 66.03702 | -28.68894 | 36216 ft | 396 kts | 270° |
| 2026-05-04 11:50 | 66.03370 | -28.82403 | 36241 ft | 396 kts | 270° |
| 2026-05-04 11:50 | 66.03030 | -28.95905 | 36265 ft | 396 kts | 270° |
| 2026-05-04 11:51 | 66.02670 | -29.09412 | 36274 ft | 396 kts | 270° |
| 2026-05-04 11:51 | 66.02301 | -29.22919 | 36276 ft | 396 kts | 270° |
| 2026-05-04 11:52 | 66.01938 | -29.36341 | 36277 ft | 396 kts | 270° |
| 2026-05-04 11:52 | 66.01549 | -29.49839 | 36281 ft | 396 kts | 269° |
| 2026-05-04 11:53 | 66.01145 | -29.63324 | 36229 ft | 396 kts | 269° |
| 2026-05-04 11:53 | 66.00729 | -29.76828 | 36279 ft | 396 kts | 269° |
| 2026-05-04 11:55 | 65.99195 | -30.30882 | 36292 ft | 397 kts | 270° |
| 2026-05-04 11:56 | 65.98846 | -30.44395 | 36301 ft | 397 kts | 269° |
| 2026-05-04 11:56 | 65.98463 | -30.57910 | 36295 ft | 397 kts | 269° |
| 2026-05-04 11:57 | 65.98069 | -30.71415 | 36275 ft | 397 kts | 269° |
| 2026-05-04 11:57 | 65.97729 | -30.82666 | 36281 ft | 398 kts | 269° |
| 2026-05-04 11:58 | 65.97311 | -30.96208 | 36294 ft | 398 kts | 269° |
| 2026-05-04 11:58 | 65.96885 | -31.09753 | 36299 ft | 398 kts | 269° |
| 2026-05-04 11:59 | 65.96444 | -31.23318 | 36305 ft | 399 kts | 269° |
| 2026-05-04 11:59 | 65.95993 | -31.36869 | 36314 ft | 399 kts | 268° |
| 2026-05-04 12:00 | 65.95532 | -31.50424 | 36314 ft | 399 kts | 268° |
| 2026-05-04 12:00 | 65.95060 | -31.63983 | 36317 ft | 399 kts | 268° |
| 2026-05-04 12:01 | 65.94572 | -31.77530 | 36326 ft | 399 kts | 268° |
| 2026-05-04 12:02 | 65.92781 | -32.24764 | 36339 ft | 398 kts | 268° |
| 2026-05-04 12:03 | 65.92241 | -32.38276 | 36339 ft | 398 kts | 267° |
| 2026-05-04 12:03 | 65.91689 | -32.51771 | 36307 ft | 398 kts | 267° |
| 2026-05-04 12:04 | 65.91125 | -32.65274 | 36322 ft | 399 kts | 267° |
| 2026-05-04 12:04 | 65.90549 | -32.78794 | 36336 ft | 399 kts | 267° |
| 2026-05-04 12:05 | 65.89958 | -32.92318 | 36350 ft | 400 kts | 266° |
| 2026-05-04 12:05 | 65.89351 | -33.05837 | 36354 ft | 400 kts | 266° |
| 2026-05-04 12:06 | 65.88739 | -33.19369 | 36357 ft | 400 kts | 266° |
| 2026-05-04 12:06 | 65.88121 | -33.32885 | 36363 ft | 400 kts | 266° |
| 2026-05-04 12:07 | 65.87480 | -33.46410 | 36325 ft | 400 kts | 266° |
| 2026-05-04 12:07 | 65.86825 | -33.59930 | 36367 ft | 401 kts | 266° |
| 2026-05-04 12:08 | 65.86163 | -33.73460 | 36368 ft | 401 kts | 265° |
| 2026-05-04 12:08 | 65.85494 | -33.86889 | 36367 ft | 401 kts | 265° |
| 2026-05-04 12:09 | 65.84811 | -34.00414 | 36367 ft | 401 kts | 265° |
| 2026-05-04 12:09 | 65.84119 | -34.13926 | 36368 ft | 401 kts | 265° |
| 2026-05-04 12:10 | 65.83402 | -34.27417 | 36366 ft | 401 kts | 265° |
| 2026-05-04 12:10 | 65.82674 | -34.40913 | 36338 ft | 401 kts | 265° |
| 2026-05-04 12:11 | 65.81945 | -34.54414 | 36347 ft | 402 kts | 265° |
| 2026-05-04 12:11 | 65.81197 | -34.67933 | 36357 ft | 403 kts | 264° |
| 2026-05-04 12:12 | 65.80434 | -34.81454 | 36364 ft | 403 kts | 264° |
| 2026-05-04 12:12 | 65.79666 | -34.94987 | 36365 ft | 403 kts | 264° |
| 2026-05-04 12:14 | 65.76454 | -35.48987 | 36382 ft | 404 kts | 263° |
| 2026-05-04 12:15 | 65.75616 | -35.62488 | 36382 ft | 403 kts | 263° |
| 2026-05-04 12:15 | 65.74770 | -35.76003 | 36382 ft | 403 kts | 263° |
| 2026-05-04 12:16 | 65.73919 | -35.89478 | 36384 ft | 403 kts | 263° |
| 2026-05-04 12:16 | 65.73055 | -36.02951 | 36382 ft | 403 kts | 263° |
| 2026-05-04 12:17 | 65.72170 | -36.16418 | 36377 ft | 404 kts | 263° |
| 2026-05-04 12:17 | 65.71274 | -36.29884 | 36355 ft | 404 kts | 263° |
| 2026-05-04 12:18 | 65.70371 | -36.43344 | 36367 ft | 404 kts | 263° |
| 2026-05-04 12:18 | 65.69450 | -36.56793 | 36352 ft | 404 kts | 262° |
| 2026-05-04 12:19 | 65.68514 | -36.70244 | 36344 ft | 404 kts | 262° |
| 2026-05-04 12:19 | 65.67575 | -36.83689 | 36333 ft | 404 kts | 262° |
| 2026-05-04 12:20 | 65.66633 | -36.97044 | 36324 ft | 404 kts | 262° |
| 2026-05-04 12:20 | 65.65662 | -37.10474 | 36319 ft | 405 kts | 262° |
| 2026-05-04 12:21 | 65.64676 | -37.23907 | 36321 ft | 404 kts | 262° |
| 2026-05-04 12:21 | 65.63683 | -37.37320 | 36350 ft | 405 kts | 262° |
| 2026-05-04 12:22 | 65.62685 | -37.50735 | 36391 ft | 405 kts | 262° |
| 2026-05-04 12:22 | 65.61675 | -37.64158 | 36388 ft | 406 kts | 262° |
| 2026-05-04 12:23 | 65.60648 | -37.77571 | 36377 ft | 406 kts | 262° |
| 2026-05-04 12:23 | 65.59606 | -37.90994 | 36371 ft | 406 kts | 262° |
| 2026-05-04 12:24 | 65.58550 | -38.04398 | 36369 ft | 406 kts | 261° |
| 2026-05-04 12:24 | 65.57485 | -38.17806 | 36337 ft | 406 kts | 261° |
| 2026-05-04 12:25 | 65.56413 | -38.31125 | 36348 ft | 407 kts | 261° |
| 2026-05-04 12:25 | 65.55322 | -38.44537 | 36357 ft | 407 kts | 261° |
| 2026-05-04 12:26 | 65.54219 | -38.57948 | 36369 ft | 407 kts | 261° |
| 2026-05-04 12:26 | 65.53110 | -38.71360 | 36372 ft | 408 kts | 261° |
| 2026-05-04 12:27 | 65.51980 | -38.84753 | 36379 ft | 408 kts | 260° |
| 2026-05-04 12:27 | 65.50833 | -38.98146 | 36380 ft | 408 kts | 260° |
| 2026-05-04 12:28 | 65.49680 | -39.11528 | 36357 ft | 408 kts | 260° |
| 2026-05-04 12:28 | 65.48510 | -39.24907 | 36385 ft | 409 kts | 260° |
| 2026-05-04 12:29 | 65.47329 | -39.38307 | 36383 ft | 409 kts | 260° |
| 2026-05-04 12:29 | 65.46149 | -39.51596 | 36378 ft | 409 kts | 260° |
| 2026-05-04 12:30 | 65.44951 | -39.64980 | 36384 ft | 409 kts | 260° |
| 2026-05-04 12:30 | 65.43734 | -39.78345 | 36384 ft | 409 kts | 260° |
| 2026-05-04 12:31 | 65.42504 | -39.91685 | 36349 ft | 409 kts | 259° |
| 2026-05-04 12:31 | 65.41327 | -40.05056 | 36354 ft | 409 kts | 262° |
| 2026-05-04 12:32 | 65.39973 | -40.25253 | 36363 ft | 408 kts | 263° |
| 2026-05-04 12:33 | 65.39102 | -40.38726 | 36365 ft | 409 kts | 263° |
| 2026-05-04 12:33 | 65.38171 | -40.52172 | 36367 ft | 409 kts | 262° |
| 2026-05-04 12:34 | 65.37203 | -40.65614 | 36372 ft | 409 kts | 262° |
| 2026-05-04 12:34 | 65.36227 | -40.79057 | 36369 ft | 409 kts | 262° |
| 2026-05-04 12:35 | 65.35244 | -40.92477 | 36356 ft | 409 kts | 262° |
| 2026-05-04 12:35 | 65.34262 | -41.05792 | 36387 ft | 408 kts | 262° |
| 2026-05-04 12:36 | 65.33261 | -41.19147 | 36385 ft | 407 kts | 262° |
| 2026-05-04 12:36 | 65.32245 | -41.32477 | 36383 ft | 407 kts | 261° |
| 2026-05-04 12:37 | 65.31227 | -41.45777 | 36372 ft | 406 kts | 261° |
| 2026-05-04 12:37 | 65.30195 | -41.59065 | 36336 ft | 406 kts | 261° |
| 2026-05-04 12:38 | 65.29148 | -41.72331 | 36328 ft | 406 kts | 261° |
| 2026-05-04 12:38 | 65.28094 | -41.85588 | 36234 ft | 406 kts | 261° |
| 2026-05-04 12:39 | 65.27022 | -41.98837 | 36249 ft | 406 kts | 261° |
| 2026-05-04 12:39 | 65.25943 | -42.12071 | 36255 ft | 406 kts | 261° |
| 2026-05-04 12:40 | 65.24863 | -42.25296 | 36161 ft | 406 kts | 261° |
| 2026-05-04 12:40 | 65.23764 | -42.38507 | 36161 ft | 406 kts | 260° |
| 2026-05-04 12:41 | 65.22655 | -42.51629 | 36160 ft | 406 kts | 260° |
| 2026-05-04 12:41 | 65.21527 | -42.64826 | 36142 ft | 406 kts | 260° |
| 2026-05-04 12:42 | 65.20387 | -42.78008 | 36115 ft | 406 kts | 260° |
| 2026-05-04 12:42 | 65.19236 | -42.91202 | 36118 ft | 407 kts | 259° |
| 2026-05-04 12:43 | 65.18069 | -43.04388 | 36125 ft | 407 kts | 259° |
| 2026-05-04 12:43 | 65.16893 | -43.17582 | 36131 ft | 408 kts | 259° |
| 2026-05-04 12:44 | 65.15708 | -43.30765 | 36127 ft | 408 kts | 259° |
| 2026-05-04 12:44 | 65.14517 | -43.43942 | 36129 ft | 408 kts | 259° |
| 2026-05-04 12:45 | 65.13302 | -43.57107 | 36128 ft | 408 kts | 259° |
| 2026-05-04 12:45 | 65.12073 | -43.70267 | 36096 ft | 408 kts | 258° |
| 2026-05-04 12:46 | 65.10840 | -43.83459 | 36092 ft | 410 kts | 258° |
| 2026-05-04 12:46 | 65.09591 | -43.96689 | 36096 ft | 411 kts | 258° |
| 2026-05-04 12:47 | 65.08321 | -44.09922 | 36107 ft | 412 kts | 258° |
| 2026-05-04 12:47 | 65.07048 | -44.23092 | 36118 ft | 413 kts | 258° |
| 2026-05-04 12:48 | 65.05748 | -44.36344 | 36118 ft | 413 kts | 258° |
| 2026-05-04 12:48 | 65.04435 | -44.49611 | 36125 ft | 414 kts | 258° |
| 2026-05-04 12:49 | 65.03106 | -44.62891 | 36101 ft | 415 kts | 257° |
| 2026-05-04 12:49 | 65.01758 | -44.76192 | 36106 ft | 416 kts | 257° |
| 2026-05-04 12:50 | 65.00623 | -44.87358 | 36112 ft | 417 kts | 257° |
| 2026-05-04 12:50 | 64.99271 | -45.00616 | 36119 ft | 418 kts | 257° |
| 2026-05-04 12:51 | 64.97890 | -45.13971 | 36127 ft | 418 kts | 257° |
| 2026-05-04 12:51 | 64.96491 | -45.27310 | 36134 ft | 419 kts | 257° |
| 2026-05-04 12:52 | 64.95077 | -45.40648 | 36138 ft | 419 kts | 257° |
| 2026-05-04 12:52 | 64.93657 | -45.53983 | 36121 ft | 419 kts | 256° |
| 2026-05-04 12:53 | 64.92218 | -45.67328 | 36120 ft | 420 kts | 256° |
| 2026-05-04 12:53 | 64.90773 | -45.80693 | 36135 ft | 421 kts | 256° |
| 2026-05-04 12:54 | 64.89315 | -45.94060 | 36141 ft | 421 kts | 256° |
| 2026-05-04 12:54 | 64.87836 | -46.07415 | 36138 ft | 421 kts | 256° |
| 2026-05-04 12:55 | 64.86346 | -46.20742 | 36140 ft | 421 kts | 256° |
| 2026-05-04 12:55 | 64.84846 | -46.34070 | 36140 ft | 422 kts | 256° |
| 2026-05-04 12:56 | 64.83342 | -46.47303 | 36141 ft | 422 kts | 256° |
| 2026-05-04 12:56 | 64.81812 | -46.60596 | 36138 ft | 422 kts | 255° |
| 2026-05-04 12:57 | 64.80269 | -46.73880 | 36135 ft | 422 kts | 255° |
| 2026-05-04 12:57 | 64.78726 | -46.87149 | 36136 ft | 422 kts | 255° |
| 2026-05-04 12:58 | 64.77166 | -47.00402 | 36130 ft | 422 kts | 255° |
| 2026-05-04 12:58 | 64.75593 | -47.13640 | 36130 ft | 422 kts | 255° |
| 2026-05-04 12:59 | 64.74002 | -47.26861 | 36130 ft | 422 kts | 255° |
| 2026-05-04 12:59 | 64.72404 | -47.40074 | 36122 ft | 422 kts | 255° |
| 2026-05-04 13:00 | 64.70805 | -47.53268 | 36122 ft | 422 kts | 255° |
| 2026-05-04 13:00 | 64.69188 | -47.66439 | 36124 ft | 421 kts | 254° |
| 2026-05-04 13:01 | 64.67552 | -47.79599 | 36125 ft | 421 kts | 254° |
| 2026-05-04 13:01 | 64.65912 | -47.92725 | 36124 ft | 421 kts | 254° |
| 2026-05-04 13:02 | 64.64254 | -48.05845 | 35826 ft | 421 kts | 254° |
| 2026-05-04 13:02 | 64.63435 | -48.12303 | 35587 ft | 420 kts | 254° |
| 2026-05-04 13:02 | 64.62604 | -48.18834 | 35324 ft | 420 kts | 254° |
| 2026-05-04 13:02 | 64.61771 | -48.25350 | 35087 ft | 418 kts | 254° |
| 2026-05-04 13:03 | 64.60941 | -48.31831 | 34851 ft | 417 kts | 254° |
| 2026-05-04 13:03 | 64.60109 | -48.38315 | 34514 ft | 417 kts | 254° |
| 2026-05-04 13:03 | 64.59271 | -48.44817 | 33645 ft | 421 kts | 253° |
| 2026-05-04 13:03 | 64.58422 | -48.51356 | 32824 ft | 422 kts | 253° |
| 2026-05-04 13:04 | 64.57567 | -48.57898 | 32165 ft | 421 kts | 253° |
| 2026-05-04 13:04 | 64.56715 | -48.64358 | 31702 ft | 415 kts | 252° |
| 2026-05-04 13:04 | 64.55871 | -48.70740 | 31179 ft | 411 kts | 252° |
| 2026-05-04 13:04 | 64.55031 | -48.77062 | 30665 ft | 407 kts | 252° |
| 2026-05-04 13:05 | 64.54202 | -48.83330 | 30147 ft | 404 kts | 252° |
| 2026-05-04 13:05 | 64.53379 | -48.89544 | 29506 ft | 402 kts | 252° |
| 2026-05-04 13:05 | 64.52544 | -48.95816 | 28297 ft | 411 kts | 252° |
| 2026-05-04 13:05 | 64.51692 | -49.02201 | 27190 ft | 413 kts | 252° |
| 2026-05-04 13:06 | 64.50851 | -49.08466 | 26183 ft | 402 kts | 252° |
| 2026-05-04 13:06 | 64.50025 | -49.14604 | 25165 ft | 394 kts | 252° |
| 2026-05-04 13:06 | 64.49208 | -49.20621 | 24163 ft | 388 kts | 251° |
| 2026-05-04 13:06 | 64.48397 | -49.26550 | 23090 ft | 382 kts | 251° |
| 2026-05-04 13:07 | 64.47598 | -49.32385 | 21993 ft | 377 kts | 251° |
| 2026-05-04 13:07 | 64.46810 | -49.38138 | 20968 ft | 372 kts | 251° |
| 2026-05-04 13:07 | 64.46034 | -49.43785 | 20286 ft | 361 kts | 251° |
| 2026-05-04 13:07 | 64.45288 | -49.49182 | 19850 ft | 343 kts | 251° |
| 2026-05-04 13:08 | 64.44579 | -49.54316 | 19424 ft | 327 kts | 251° |
| 2026-05-04 13:08 | 64.43902 | -49.59227 | 18998 ft | 314 kts | 251° |
| 2026-05-04 13:08 | 64.43235 | -49.64024 | 18591 ft | 315 kts | 251° |
| 2026-05-04 13:08 | 64.42557 | -49.68863 | 18122 ft | 316 kts | 251° |
| 2026-05-04 13:09 | 64.41889 | -49.73616 | 17693 ft | 314 kts | 251° |
| 2026-05-04 13:09 | 64.41217 | -49.78392 | 17271 ft | 312 kts | 251° |
| 2026-05-04 13:09 | 64.40548 | -49.83144 | 16851 ft | 310 kts | 251° |
| 2026-05-04 13:09 | 64.39879 | -49.87872 | 16424 ft | 308 kts | 251° |
| 2026-05-04 13:10 | 64.39212 | -49.92570 | 16004 ft | 307 kts | 250° |
| 2026-05-04 13:10 | 64.38549 | -49.97254 | 15588 ft | 305 kts | 250° |
| 2026-05-04 13:10 | 64.37887 | -50.01902 | 15174 ft | 304 kts | 250° |
| 2026-05-04 13:10 | 64.37225 | -50.06539 | 14761 ft | 303 kts | 250° |
| 2026-05-04 13:11 | 64.36564 | -50.11164 | 14339 ft | 304 kts | 250° |
| 2026-05-04 13:11 | 64.35895 | -50.15809 | 13917 ft | 305 kts | 250° |
| 2026-05-04 13:11 | 64.35225 | -50.20449 | 13452 ft | 306 kts | 250° |
| 2026-05-04 13:11 | 64.34549 | -50.25133 | 12954 ft | 308 kts | 250° |
| 2026-05-04 13:12 | 64.33872 | -50.29805 | 12528 ft | 306 kts | 250° |
| 2026-05-04 13:12 | 64.33196 | -50.34461 | 12100 ft | 306 kts | 250° |
| 2026-05-04 13:12 | 64.32523 | -50.39113 | 11684 ft | 306 kts | 250° |
| 2026-05-04 13:12 | 64.31848 | -50.43777 | 11255 ft | 307 kts | 250° |
| 2026-05-04 13:13 | 64.31172 | -50.48434 | 10830 ft | 307 kts | 249° |
| 2026-05-04 13:13 | 64.30491 | -50.53093 | 10423 ft | 306 kts | 249° |
| 2026-05-04 13:13 | 64.29819 | -50.57666 | 10278 ft | 296 kts | 249° |
| 2026-05-04 13:13 | 64.29166 | -50.62087 | 10150 ft | 287 kts | 249° |
| 2026-05-04 13:14 | 64.28532 | -50.66383 | 10017 ft | 280 kts | 249° |
| 2026-05-04 13:14 | 64.27904 | -50.70635 | 9905 ft | 282 kts | 249° |
| 2026-05-04 13:14 | 64.27266 | -50.74942 | 9534 ft | 283 kts | 249° |
| 2026-05-04 13:14 | 64.26628 | -50.79232 | 9138 ft | 285 kts | 249° |
| 2026-05-04 13:15 | 64.25990 | -50.83518 | 8771 ft | 284 kts | 249° |
| 2026-05-04 13:15 | 64.25346 | -50.87822 | 8515 ft | 281 kts | 249° |
| 2026-05-04 13:15 | 64.24719 | -50.92013 | 8376 ft | 274 kts | 249° |
| 2026-05-04 13:15 | 64.24107 | -50.96104 | 8242 ft | 267 kts | 249° |
| 2026-05-04 13:16 | 64.23508 | -51.00082 | 8111 ft | 260 kts | 248° |
| 2026-05-04 13:16 | 64.22923 | -51.03938 | 7978 ft | 251 kts | 248° |
| 2026-05-04 13:16 | 64.22353 | -51.07687 | 7852 ft | 246 kts | 248° |
| 2026-05-04 13:16 | 64.21973 | -51.11457 | 7714 ft | 240 kts | 260° |
| 2026-05-04 13:17 | 64.21746 | -51.15253 | 7575 ft | 241 kts | 259° |
| 2026-05-04 13:17 | 64.21510 | -51.19065 | 7371 ft | 241 kts | 259° |
| 2026-05-04 13:17 | 64.21272 | -51.22870 | 7167 ft | 240 kts | 259° |
| 2026-05-04 13:17 | 64.21038 | -51.26608 | 6969 ft | 239 kts | 259° |
| 2026-05-04 13:18 | 64.20802 | -51.30379 | 6767 ft | 238 kts | 259° |
| 2026-05-04 13:18 | 64.20569 | -51.34142 | 6567 ft | 238 kts | 259° |
| 2026-05-04 13:18 | 64.20334 | -51.37890 | 6360 ft | 237 kts | 259° |
| 2026-05-04 13:18 | 64.20096 | -51.41626 | 6153 ft | 237 kts | 259° |
| 2026-05-04 13:19 | 64.19856 | -51.45365 | 5930 ft | 236 kts | 259° |
| 2026-05-04 13:19 | 64.19617 | -51.49091 | 5726 ft | 236 kts | 259° |
| 2026-05-04 13:19 | 64.19378 | -51.52814 | 5522 ft | 236 kts | 260° |
| 2026-05-04 13:19 | 64.19147 | -51.56530 | 5282 ft | 235 kts | 260° |
| 2026-05-04 13:20 | 64.18912 | -51.60250 | 5095 ft | 235 kts | 260° |
| 2026-05-04 13:20 | 64.18673 | -51.63956 | 5001 ft | 235 kts | 260° |
| 2026-05-04 13:20 | 64.18431 | -51.67663 | 5024 ft | 235 kts | 259° |
| 2026-05-04 13:20 | 64.18202 | -51.71375 | 5010 ft | 235 kts | 259° |
| 2026-05-04 13:21 | 64.17742 | -51.74873 | 5021 ft | 232 kts | 240° |
| 2026-05-04 13:21 | 64.16962 | -51.78109 | 5014 ft | 232 kts | 236° |
| 2026-05-04 13:21 | 64.16114 | -51.81259 | 5012 ft | 232 kts | 234° |
| 2026-05-04 13:21 | 64.15221 | -51.84329 | 5011 ft | 232 kts | 231° |
| 2026-05-04 13:22 | 64.14286 | -51.87331 | 5008 ft | 231 kts | 231° |
| 2026-05-04 13:22 | 64.13354 | -51.90287 | 4893 ft | 226 kts | 231° |
| 2026-05-04 13:22 | 64.12459 | -51.93123 | 4673 ft | 214 kts | 231° |
| 2026-05-04 13:22 | 64.11609 | -51.95758 | 4506 ft | 198 kts | 224° |
| 2026-05-04 13:23 | 64.10503 | -51.97359 | 4127 ft | 186 kts | 195° |
| 2026-05-04 13:23 | 64.09258 | -51.98078 | 3637 ft | 184 kts | 189° |
| 2026-05-04 13:23 | 64.08018 | -51.98629 | 3529 ft | 183 kts | 188° |
| 2026-05-04 13:23 | 64.06744 | -51.99005 | 3559 ft | 185 kts | 179° |
| 2026-05-04 13:24 | 64.05479 | -51.98623 | 3591 ft | 184 kts | 160° |
| 2026-05-04 13:24 | 64.04361 | -51.97230 | 3630 ft | 184 kts | 142° |
| 2026-05-04 13:24 | 64.03433 | -51.95217 | 3617 ft | 185 kts | 131° |
| 2026-05-04 13:25 | 64.02144 | -51.90123 | 3589 ft | 187 kts | 116° |
| 2026-05-04 13:25 | 64.01746 | -51.87298 | 3618 ft | 190 kts | 100° |
| 2026-05-04 13:25 | 64.01837 | -51.84343 | 3681 ft | 179 kts | 76° |
| 2026-05-04 13:25 | 64.02431 | -51.82015 | 3578 ft | 164 kts | 50° |
| 2026-05-04 13:26 | 64.03209 | -51.80328 | 3528 ft | 150 kts | 45° |
| 2026-05-04 13:26 | 64.04040 | -51.78935 | 3511 ft | 152 kts | 32° |
| 2026-05-04 13:26 | 64.05044 | -51.78123 | 3460 ft | 156 kts | 14° |
| 2026-05-04 13:26 | 64.06112 | -51.77676 | 3234 ft | 155 kts | 14° |
| 2026-05-04 13:27 | 64.07144 | -51.77049 | 2941 ft | 153 kts | 22° |
| 2026-05-04 13:27 | 64.08118 | -51.76129 | 2681 ft | 151 kts | 26° |
| 2026-05-04 13:27 | 64.09086 | -51.75212 | 2412 ft | 150 kts | 25° |
| 2026-05-04 13:27 | 64.10073 | -51.74418 | 2187 ft | 151 kts | 20° |
| 2026-05-04 13:28 | 64.11076 | -51.73739 | 1958 ft | 150 kts | 19° |
| 2026-05-04 13:28 | 64.12071 | -51.73030 | 1710 ft | 149 kts | 20° |
| 2026-05-04 13:28 | 64.13050 | -51.72319 | 1504 ft | 147 kts | 20° |
| 2026-05-04 13:28 | 64.14020 | -51.71608 | 1325 ft | 146 kts | 20° |
| 2026-05-04 13:29 | 64.14986 | -51.70937 | 1088 ft | 144 kts | 19° |
| 2026-05-04 13:29 | 64.15928 | -51.70242 | 842 ft | 141 kts | 21° |
| 2026-05-04 13:29 | 64.16849 | -51.69559 | 608 ft | 138 kts | 18° |
| 2026-05-04 13:29 | 64.17755 | -51.68912 | 393 ft | 136 kts | 18° |
| 2026-05-04 13:30 | 64.18633 | -51.68263 | 261 ft | 121 kts | 18° |
| 2026-05-04 13:30 | 64.19202 | -51.67845 | 265 ft | 43 kts | 17° |
| 2026-05-04 13:30 | 64.19345 | -51.67742 | 264 ft | 19 kts | 17° |
| 2026-05-04 13:30 | 64.19482 | -51.67643 | 264 ft | 22 kts | 17° |
| 2026-05-04 13:31 | 64.19637 | -51.67531 | 263 ft | 25 kts | 17° |
| 2026-05-04 13:31 | 64.19812 | -51.67403 | 259 ft | 29 kts | 18° |
| 2026-05-04 13:31 | 64.19948 | -51.67369 | 254 ft | 13 kts | 343° |
| 2026-05-04 13:31 | 64.20009 | -51.67310 | 254 ft | 9 kts | 96° |
| 2026-05-04 13:32 | 64.19952 | -51.67280 | 254 ft | 11 kts | 202° |
| 2026-05-04 13:32 | 64.19866 | -51.67352 | 257 ft | 14 kts | 199° |
| 2026-05-04 13:32 | 64.19764 | -51.67434 | 260 ft | 17 kts | 199° |
| 2026-05-04 13:32 | 64.19645 | -51.67529 | 263 ft | 20 kts | 199° |
| 2026-05-04 13:33 | 64.19499 | -51.67632 | 264 ft | 23 kts | 198° |
| 2026-05-04 13:33 | 64.19333 | -51.67757 | 264 ft | 26 kts | 198° |
| 2026-05-04 13:33 | 64.19187 | -51.67861 | 265 ft | 12 kts | 197° |
| 2026-05-04 13:33 | 64.19142 | -51.67893 | 265 ft | 6 kts | 197° |
| 2026-05-04 13:34 | 64.19100 | -51.67861 | 264 ft | 9 kts | 130° |
| 2026-05-04 13:34 | 64.19070 | -51.67674 | 254 ft | 9 kts | 107° |
| 2026-05-04 13:34 | 64.19019 | -51.67606 | 254 ft | 12 kts | 197° |
| 2026-05-04 13:34 | 64.18931 | -51.67668 | 254 ft | 15 kts | 197° |
| 2026-05-04 13:35 | 64.18820 | -51.67747 | 254 ft | 18 kts | 198° |
| 2026-05-04 13:35 | 64.18538 | -51.67957 | 254 ft | 16 kts | 197° |
| 2026-05-04 13:35 | 64.18489 | -51.67934 | 254 ft | 8 kts | 102° |
| 2026-05-04 13:36 | 64.18479 | -51.67854 | 254 ft | 4 kts | 108° |
| 2026-05-04 13:36 | 64.18477 | -51.67843 | 254 ft | 0 kts | 108° |